John James Audubon — WDE8037 — position and weather

sailwx.info

Track history (hours):
 
Tides and Currents Weather Stations Pressure Air Temp Water Temp Dewpoint Dewpoint Depression Visibility Wind Speed Wind Dir Waves Ship Positions

John James Audubon

Owner: Statue Cruises, Jersey City, NJ. More information available from US FCC via Universal Licensing System and Coast Guard Vessel Documentation Center.

Last reported at 2015-May-26 15:33 UTC. Time now 2015-May-26 15:49 UTC.
Position N 40°42' W 074°00'.

Length 37 m.

Type: Ship. MMSI: 367400770.

Date/timePositionNaut miles runAvg speedWind from/ knotsBaromVisibWave heightAir tempDewpointWater temp
2015-May-26 15:33N 40°42' W 074°00'2 2.0
2015-May-26 14:33N 40°41' W 074°02'1 1.2
2015-May-26 13:33N 40°42' W 074°01'2 0.1
2015-May-25 23:22N 40°44' W 074°01'0 0.1
2015-May-25 22:33N 40°44' W 074°01'3 2.6
2015-May-25 21:33N 40°41' W 074°02'2 1.6
2015-May-25 20:33N 40°42' W 074°00'0 0.0
2015-May-25 19:33N 40°42' W 074°00'2 1.8
2015-May-25 18:33N 40°41' W 074°02'2 1.8
2015-May-25 17:33N 40°42' W 074°00'0 0.0
2015-May-25 16:33N 40°42' W 074°00'2 1.9
2015-May-25 15:33N 40°41' W 074°02'2 1.9
2015-May-25 14:33N 40°42' W 074°00'0 0.0
2015-May-25 13:33N 40°42' W 074°00'2 1.6
2015-May-25 12:33N 40°44' W 074°01'2 0.1
2015-May-24 22:33N 40°42' W 074°01'1 1.4
2015-May-24 21:33N 40°41' W 074°02'2 2.0
2015-May-24 20:33N 40°42' W 074°00'0 0.0
2015-May-24 19:33N 40°42' W 074°00'2 1.9
2015-May-24 18:33N 40°41' W 074°02'2 1.9
2015-May-24 17:33N 40°42' W 074°00'0 0.0
2015-May-24 16:33N 40°42' W 074°00'2 1.8
2015-May-24 15:33N 40°41' W 074°02'2 1.7
2015-May-24 14:33N 40°42' W 074°00'0 0.0
2015-May-24 13:33N 40°42' W 074°00'2 1.6
2015-May-24 12:33N 40°44' W 074°01'0 0.0
2015-May-24 11:32N 40°44' W 074°01'0 0.0
2015-May-23 23:33N 40°44' W 074°01'0 0.4
2015-May-23 22:33N 40°44' W 074°01'3 2.6
2015-May-23 21:33N 40°41' W 074°02'2 1.9
2015-May-23 20:33N 40°42' W 074°00'0 0.0
2015-May-23 19:33N 40°42' W 074°00'2 1.9
2015-May-23 18:33N 40°41' W 074°02'2 1.9
2015-May-23 17:33N 40°42' W 074°00'0 0.0
2015-May-23 16:33N 40°42' W 074°00'2 2.0
2015-May-23 15:33N 40°41' W 074°02'2 2.0
2015-May-23 14:33N 40°42' W 074°00'0 0.0
2015-May-23 13:33N 40°42' W 074°00'2 0.1
2015-May-22 20:20N 40°44' W 074°01'2 2.1
2015-May-22 19:34N 40°42' W 073°60'0 0.4
2015-May-22 18:34N 40°42' W 074°00'2 1.7
2015-May-22 17:34N 40°41' W 074°02'2 2.1
2015-May-22 16:34N 40°42' W 073°60'0 0.4
2015-May-22 15:33N 40°42' W 074°00'2 1.8
2015-May-22 14:34N 40°41' W 074°02'2 2.1
2015-May-22 13:34N 40°42' W 073°60'2 1.7
2015-May-22 12:33N 40°44' W 074°01'0 0.0
2015-May-21 20:11N 40°44' W 074°01'2 2.6
2015-May-21 19:33N 40°42' W 074°00'0 0.0
2015-May-21 18:33N 40°42' W 074°00'2 1.8
2015-May-21 17:34N 40°41' W 074°02'2 2.0
2015-May-21 16:34N 40°42' W 073°60'0 0.2
2015-May-21 15:33N 40°42' W 074°00'2 1.7
2015-May-21 14:34N 40°42' W 074°02'1 1.4
2015-May-21 13:34N 40°43' W 074°01'1 1.2
2015-May-21 12:33N 40°44' W 074°01'0 0.0
2015-May-21 11:34N 40°44' W 074°01'0 0.0
2015-May-21 10:33N 40°44' W 074°01'0 0.0
2015-May-20 20:23N 40°44' W 074°01'2 2.0
2015-May-20 19:33N 40°42' W 073°60'0 0.3
2015-May-20 18:33N 40°42' W 074°00'2 1.8
2015-May-20 17:33N 40°41' W 074°02'2 2.3
2015-May-20 16:33N 40°42' W 073°60'1 0.5
2015-May-20 15:33N 40°42' W 074°00'1 1.4
2015-May-20 14:33N 40°42' W 074°02'1 1.3
2015-May-20 13:33N 40°42' W 074°00'2 2.0
2015-May-20 12:33N 40°44' W 074°01'0 0.0
2015-May-19 21:33N 40°44' W 074°01'0 0.0
2015-May-19 20:33N 40°44' W 074°01'2 1.6
2015-May-19 19:33N 40°42' W 074°00'0 0.0
2015-May-19 18:33N 40°42' W 074°00'2 1.8
2015-May-19 17:33N 40°41' W 074°02'2 1.8
2015-May-19 16:33N 40°42' W 074°00'0 0.0
2015-May-19 15:33N 40°42' W 074°00'2 1.8
2015-May-19 14:33N 40°41' W 074°02'1 1.3
2015-May-19 13:33N 40°42' W 074°01'30883087.9
2015-May-19 12:33N 89°40' W 111°50'3086192.9
2015-May-18 20:33N 40°44' W 074°01'2 1.6
2015-May-18 19:33N 40°42' W 073°60'0 0.2
2015-May-18 18:33N 40°42' W 074°00'2 2.0
2015-May-18 17:33N 40°41' W 074°02'2 2.2
2015-May-18 16:33N 40°42' W 073°60'0 0.2
2015-May-18 15:33N 40°42' W 074°00'2 1.8
2015-May-18 14:33N 40°41' W 074°02'1 1.4
2015-May-18 13:33N 40°43' W 074°01'1 1.4
2015-May-18 12:33N 40°44' W 074°01'0 0.0
2015-May-18 01:24N 40°44' W 074°01'0 0.0
2015-May-18 00:33N 40°44' W 074°01'2 1.8
2015-May-17 23:33N 40°42' W 073°59'2 1.6
2015-May-17 22:33N 40°42' W 074°01'1 0.8
2015-May-17 21:33N 40°42' W 074°00'2 1.8
2015-May-17 20:33N 40°43' W 074°02'2 1.9
2015-May-17 19:33N 40°42' W 073°60'0 0.2
2015-May-17 18:33N 40°42' W 074°00'2 2.0
2015-May-17 17:33N 40°41' W 074°02'2 1.6
2015-May-17 16:33N 40°42' W 074°00'0 0.4
2015-May-17 15:33N 40°42' W 074°00'2 1.6
2015-May-17 14:33N 40°42' W 074°02'1 1.3
2015-May-17 13:33N 40°43' W 074°01'0 0.0
2015-May-17 04:33N 40°42' W 074°01'1 1.1
2015-May-17 03:33N 40°41' W 074°02'3 3.4
2015-May-17 02:33N 40°45' W 074°01'3 2.6
2015-May-17 01:33N 40°42' W 074°01'1 0.8
2015-May-17 00:33N 40°42' W 074°00'0 0.2
2015-May-16 23:33N 40°42' W 074°00'2 2.3
2015-May-16 22:33N 40°44' W 074°01'2 2.1
2015-May-16 21:33N 40°42' W 074°00'0 0.0
2015-May-16 20:33N 40°42' W 074°00'0 0.0
2015-May-16 19:33N 40°42' W 074°00'0 0.0
2015-May-16 18:33N 40°42' W 074°00'2 1.8
2015-May-16 17:33N 40°41' W 074°02'2 1.8
2015-May-16 16:33N 40°42' W 074°00'  
Track history (hours):
 
Tides and Currents Weather Stations Pressure Air Temp Water Temp Dewpoint Dewpoint Depression Visibility Wind Speed Wind Dir Waves Ship Positions

John James Audubon

Owner: Statue Cruises, Jersey City, NJ. More information available from US FCC via Universal Licensing System and Coast Guard Vessel Documentation Center.

Last reported at 2015-May-26 15:33 UTC. Time now 2015-May-26 15:49 UTC.
Position N 40°42' W 074°00'.

Length 37 m.

Type: Ship. MMSI: 367400770.

Date/timePositionNaut miles runAvg speedWind from/ knotsBaromVisibWave heightAir tempDewpointWater temp
2015-May-26 15:33N 40°42' W 074°00'2 2.0
2015-May-26 14:33N 40°41' W 074°02'1 1.2
2015-May-26 13:33N 40°42' W 074°01'2 0.1
2015-May-25 23:22N 40°44' W 074°01'0 0.1
2015-May-25 22:33N 40°44' W 074°01'3 2.6
2015-May-25 21:33N 40°41' W 074°02'2 1.6
2015-May-25 20:33N 40°42' W 074°00'0 0.0
2015-May-25 19:33N 40°42' W 074°00'2 1.8
2015-May-25 18:33N 40°41' W 074°02'2 1.8
2015-May-25 17:33N 40°42' W 074°00'0 0.0
2015-May-25 16:33N 40°42' W 074°00'2 1.9
2015-May-25 15:33N 40°41' W 074°02'2 1.9
2015-May-25 14:33N 40°42' W 074°00'0 0.0
2015-May-25 13:33N 40°42' W 074°00'2 1.6
2015-May-25 12:33N 40°44' W 074°01'2 0.1
2015-May-24 22:33N 40°42' W 074°01'1 1.4
2015-May-24 21:33N 40°41' W 074°02'2 2.0
2015-May-24 20:33N 40°42' W 074°00'0 0.0
2015-May-24 19:33N 40°42' W 074°00'2 1.9
2015-May-24 18:33N 40°41' W 074°02'2 1.9
2015-May-24 17:33N 40°42' W 074°00'0 0.0
2015-May-24 16:33N 40°42' W 074°00'2 1.8
2015-May-24 15:33N 40°41' W 074°02'2 1.7
2015-May-24 14:33N 40°42' W 074°00'0 0.0
2015-May-24 13:33N 40°42' W 074°00'2 1.6
2015-May-24 12:33N 40°44' W 074°01'0 0.0
2015-May-24 11:32N 40°44' W 074°01'0 0.0
2015-May-23 23:33N 40°44' W 074°01'0 0.4
2015-May-23 22:33N 40°44' W 074°01'3 2.6
2015-May-23 21:33N 40°41' W 074°02'2 1.9
2015-May-23 20:33N 40°42' W 074°00'0 0.0
2015-May-23 19:33N 40°42' W 074°00'2 1.9
2015-May-23 18:33N 40°41' W 074°02'2 1.9
2015-May-23 17:33N 40°42' W 074°00'0 0.0
2015-May-23 16:33N 40°42' W 074°00'2 2.0
2015-May-23 15:33N 40°41' W 074°02'2 2.0
2015-May-23 14:33N 40°42' W 074°00'0 0.0
2015-May-23 13:33N 40°42' W 074°00'2 0.1
2015-May-22 20:20N 40°44' W 074°01'2 2.1
2015-May-22 19:34N 40°42' W 073°60'0 0.4
2015-May-22 18:34N 40°42' W 074°00'2 1.7
2015-May-22 17:34N 40°41' W 074°02'2 2.1
2015-May-22 16:34N 40°42' W 073°60'0 0.4
2015-May-22 15:33N 40°42' W 074°00'2 1.8
2015-May-22 14:34N 40°41' W 074°02'2 2.1
2015-May-22 13:34N 40°42' W 073°60'2 1.7
2015-May-22 12:33N 40°44' W 074°01'0 0.0
2015-May-21 20:11N 40°44' W 074°01'2 2.6
2015-May-21 19:33N 40°42' W 074°00'0 0.0
2015-May-21 18:33N 40°42' W 074°00'2 1.8
2015-May-21 17:34N 40°41' W 074°02'2 2.0
2015-May-21 16:34N 40°42' W 073°60'0 0.2
2015-May-21 15:33N 40°42' W 074°00'2 1.7
2015-May-21 14:34N 40°42' W 074°02'1 1.4
2015-May-21 13:34N 40°43' W 074°01'1 1.2
2015-May-21 12:33N 40°44' W 074°01'0 0.0
2015-May-21 11:34N 40°44' W 074°01'0 0.0
2015-May-21 10:33N 40°44' W 074°01'0 0.0
2015-May-20 20:23N 40°44' W 074°01'2 2.0
2015-May-20 19:33N 40°42' W 073°60'0 0.3
2015-May-20 18:33N 40°42' W 074°00'2 1.8
2015-May-20 17:33N 40°41' W 074°02'2 2.3
2015-May-20 16:33N 40°42' W 073°60'1 0.5
2015-May-20 15:33N 40°42' W 074°00'1 1.4
2015-May-20 14:33N 40°42' W 074°02'1 1.3
2015-May-20 13:33N 40°42' W 074°00'2 2.0
2015-May-20 12:33N 40°44' W 074°01'0 0.0
2015-May-19 21:33N 40°44' W 074°01'0 0.0
2015-May-19 20:33N 40°44' W 074°01'2 1.6
2015-May-19 19:33N 40°42' W 074°00'0 0.0
2015-May-19 18:33N 40°42' W 074°00'2 1.8
2015-May-19 17:33N 40°41' W 074°02'2 1.8
2015-May-19 16:33N 40°42' W 074°00'0 0.0
2015-May-19 15:33N 40°42' W 074°00'2 1.8
2015-May-19 14:33N 40°41' W 074°02'1 1.3
2015-May-19 13:33N 40°42' W 074°01'30883087.9
2015-May-19 12:33N 89°40' W 111°50'3086192.9
2015-May-18 20:33N 40°44' W 074°01'2 1.6
2015-May-18 19:33N 40°42' W 073°60'0 0.2
2015-May-18 18:33N 40°42' W 074°00'2 2.0
2015-May-18 17:33N 40°41' W 074°02'2 2.2
2015-May-18 16:33N 40°42' W 073°60'0 0.2
2015-May-18 15:33N 40°42' W 074°00'2 1.8
2015-May-18 14:33N 40°41' W 074°02'1 1.4
2015-May-18 13:33N 40°43' W 074°01'1 1.4
2015-May-18 12:33N 40°44' W 074°01'0 0.0
2015-May-18 01:24N 40°44' W 074°01'0 0.0
2015-May-18 00:33N 40°44' W 074°01'2 1.8
2015-May-17 23:33N 40°42' W 073°59'2 1.6
2015-May-17 22:33N 40°42' W 074°01'1 0.8
2015-May-17 21:33N 40°42' W 074°00'2 1.8
2015-May-17 20:33N 40°43' W 074°02'2 1.9
2015-May-17 19:33N 40°42' W 073°60'0 0.2
2015-May-17 18:33N 40°42' W 074°00'2 2.0
2015-May-17 17:33N 40°41' W 074°02'2 1.6
2015-May-17 16:33N 40°42' W 074°00'0 0.4
2015-May-17 15:33N 40°42' W 074°00'2 1.6
2015-May-17 14:33N 40°42' W 074°02'1 1.3
2015-May-17 13:33N 40°43' W 074°01'0 0.0
2015-May-17 04:33N 40°42' W 074°01'1 1.1
2015-May-17 03:33N 40°41' W 074°02'3 3.4
2015-May-17 02:33N 40°45' W 074°01'3 2.6
2015-May-17 01:33N 40°42' W 074°01'1 0.8
2015-May-17 00:33N 40°42' W 074°00'0 0.2
2015-May-16 23:33N 40°42' W 074°00'2 2.3
2015-May-16 22:33N 40°44' W 074°01'2 2.1
2015-May-16 21:33N 40°42' W 074°00'0 0.0
2015-May-16 20:33N 40°42' W 074°00'0 0.0
2015-May-16 19:33N 40°42' W 074°00'0 0.0
2015-May-16 18:33N 40°42' W 074°00'2 1.8
2015-May-16 17:33N 40°41' W 074°02'2 1.8
2015-May-16 16:33N 40°42' W 074°00'  

Dump ship's entire track history